Time;durP1;ratioP1;P1;durP2;ratioP2;P2;SDS_P1;SDS_P2;PMS_P1;PMS_P2;Temp;Humidity;BMP_temperature;BMP_pressure;BME280_temperature;BME280_humidity;BME280_pressure;Samples;Min_cycle;Max_cycle;Signal;HPM_P1;HPM_P2
2022/06/28 00:01:24;;;;;;;3.78;2.35;;;18.40;99.90;;;18.60;100.00;101025.56;4973276;28;20042;-77
2022/06/28 00:03:51;;;;;;;2.83;1.90;;;18.40;99.90;;;18.53;100.00;101024.16;4986900;28;20499;-77
2022/06/28 00:06:18;;;;;;;3.13;2.40;;;18.40;99.90;;;18.53;100.00;101027.66;4988920;28;20038;-77
2022/06/28 00:08:45;;;;;;;3.75;2.42;;;18.40;99.90;;;18.45;100.00;101036.94;4987965;28;20054;-76
2022/06/28 00:11:12;;;;;;;4.80;2.15;;;18.40;99.90;;;18.35;100.00;101042.72;4988542;28;20491;-77
2022/06/28 00:13:40;;;;;;;5.00;2.15;;;18.30;99.90;;;18.33;100.00;101041.91;4987176;28;20101;-77
2022/06/28 00:16:07;;;;;;;2.78;2.10;;;18.30;99.90;;;18.31;100.00;101040.25;4988605;28;20050;-77
2022/06/28 00:18:37;;;;;;;3.08;2.75;;;18.20;99.90;;;18.25;100.00;101044.91;4972261;28;20042;-77
2022/06/28 00:21:09;;;;;;;4.63;2.60;;;18.20;99.90;;;18.16;100.00;101036.47;4987231;28;20054;-77
2022/06/28 00:23:38;;;;;;;5.63;2.53;;;18.10;99.90;;;17.98;100.00;101034.56;4988284;28;20058;-77
2022/06/28 00:26:07;;;;;;;6.63;2.53;;;17.40;99.90;;;17.98;100.00;101034.56;4988316;28;20058;-76
2022/06/28 00:28:36;;;;;;;3.47;2.50;;;18.00;99.90;;;17.94;100.00;101037.41;4989020;28;20049;-77
2022/06/28 00:31:03;;;;;;;4.60;2.78;;;17.90;99.90;;;17.84;100.00;101037.81;4986070;28;20038;-77
2022/06/28 00:33:31;;;;;;;3.58;2.55;;;17.90;99.90;;;17.82;100.00;101041.50;4970680;28;20055;-77
2022/06/28 00:35:58;;;;;;;3.92;2.30;;;17.80;99.90;;;17.80;100.00;101043.38;4971687;28;20039;-77
2022/06/28 00:38:25;;;;;;;6.88;2.80;;;17.80;99.90;;;17.74;100.00;101049.81;4987802;28;20085;-77
2022/06/28 00:40:54;;;;;;;5.88;2.90;;;17.70;99.90;;;17.55;100.00;101045.25;5002885;28;20046;-76
2022/06/28 00:43:22;;;;;;;4.55;2.53;;;17.70;99.90;;;17.51;100.00;101041.00;4971689;28;20038;-77
2022/06/28 00:45:51;;;;;;;4.57;2.33;;;17.60;99.90;;;17.53;100.00;101047.13;4987702;28;20046;-77
2022/06/28 00:48:21;;;;;;;3.17;2.47;;;17.50;99.90;;;17.45;100.00;101038.63;4972532;28;20042;-77
2022/06/28 00:50:48;;;;;;;4.15;2.55;;;17.50;99.90;;;17.46;100.00;101040.34;4988093;28;20600;-77
2022/06/28 00:53:17;;;;;;;3.25;2.00;;;17.40;99.90;;;17.50;100.00;101041.94;4972230;28;20043;-77
2022/06/28 00:55:45;;;;;;;3.22;2.20;;;17.40;99.90;;;17.39;100.00;101037.06;4988426;28;20050;-76
2022/06/28 00:58:15;;;;;;;4.00;2.05;;;17.40;99.90;;;17.41;100.00;101040.53;4987998;28;20448;-77
2022/06/28 01:00:48;;;;;;;9.70;1.90;;;17.40;99.90;;;17.45;100.00;101030.63;4986191;28;20046;-76
2022/06/28 01:03:20;;;;;;;2.20;1.90;;;17.40;99.90;;;17.38;100.00;101034.47;4972591;28;20058;-76
2022/06/28 01:05:51;;;;;;;4.35;2.00;;;16.70;99.90;;;17.23;100.00;101034.19;4968429;28;20053;-77
2022/06/28 01:08:22;;;;;;;2.85;2.10;;;17.30;99.90;;;17.19;100.00;101042.38;4952656;28;20074;-77
2022/06/28 01:10:49;;;;;;;2.45;1.90;;;17.20;99.90;;;17.17;100.00;101038.88;4951532;28;20105;-76
2022/06/28 01:13:18;;;;;;;2.70;2.30;;;17.20;99.90;;;17.07;100.00;101035.75;4969044;28;20039;-77
2022/06/28 01:15:48;;;;;;;4.43;1.63;;;17.20;99.90;;;17.03;100.00;101036.78;4953193;28;20122;-77
2022/06/28 01:18:17;;;;;;;2.97;1.85;;;17.10;99.90;;;16.98;100.00;101036.94;4969872;28;20125;-77
2022/06/28 01:20:46;;;;;;;2.10;1.77;;;17.00;99.90;;;16.97;100.00;101040.53;4952391;28;20051;-77
2022/06/28 01:23:19;;;;;;;3.92;1.92;;;17.30;99.90;;;16.86;100.00;101036.53;4983900;28;20049;-77
2022/06/28 01:25:49;;;;;;;3.22;1.90;;;18.00;99.90;;;16.79;100.00;101050.13;4968524;28;20055;-77
2022/06/28 01:28:22;;;;;;;3.13;2.00;;;16.90;99.90;;;16.71;100.00;101045.97;4953732;28;20148;-77
2022/06/28 01:30:53;;;;;;;4.03;2.17;;;16.80;99.90;;;16.67;100.00;101046.13;4967087;28;20066;-76
2022/06/28 01:33:23;;;;;;;5.35;2.08;;;16.80;99.90;;;16.41;100.00;101043.56;4967576;28;20050;-77
2022/06/28 01:35:52;;;;;;;3.85;1.75;;;16.60;99.90;;;16.59;100.00;101047.31;4952315;28;20053;-77
2022/06/28 01:38:23;;;;;;;6.38;1.70;;;16.60;99.90;;;16.59;100.00;101047.31;4951882;28;20537;-77
2022/06/28 01:40:50;;;;;;;6.93;2.10;;;18.30;99.90;;;16.37;100.00;101049.91;4950954;28;20087;-77
2022/06/28 01:43:20;;;;;;;4.32;2.22;;;16.60;99.90;;;16.27;100.00;101062.66;4951659;28;20402;-77
2022/06/28 01:45:50;;;;;;;;;;;16.50;99.90;;;16.32;100.00;101048.34;4952834;28;20051;-77
2022/06/28 01:48:19;;;;;;;4.03;2.78;;;17.40;99.90;;;16.29;100.00;101047.53;4983867;28;20287;-77
2022/06/28 01:51:01;;;;;;;5.03;2.03;;;16.40;99.90;;;16.27;100.00;101049.38;4953238;28;20066;-77
2022/06/28 01:53:29;;;;;;;4.50;1.85;;;16.30;99.90;;;15.95;100.00;101050.56;4951456;28;20043;-76
2022/06/28 01:56:16;;;;;;;9.02;2.10;;;16.30;99.90;;;15.84;100.00;101049.13;4984277;28;20062;-77
2022/06/28 01:58:56;;;;;;;5.65;1.90;;;16.10;99.90;;;15.96;100.00;101060.25;4952584;28;20145;-77
2022/06/28 02:01:28;;;;;;;6.72;1.90;;;16.20;99.90;;;15.81;100.00;101057.16;4955082;28;20049;-77
2022/06/28 02:03:57;;;;;;;4.43;1.90;;;;;;;15.77;100.00;101058.22;4951156;28;20722;-77
2022/06/28 02:06:33;;;;;;;4.40;2.00;;;16.00;99.90;;;15.82;100.00;101058.06;4952951;28;20071;-76
2022/06/28 02:09:06;;;;;;;2.75;1.83;;;16.00;99.90;;;15.92;100.00;101061.28;4982811;28;20739;-77
2022/06/28 02:11:42;;;;;;;2.78;1.77;;;17.70;99.90;;;15.81;100.00;101051.88;4952462;28;20054;-76
2022/06/28 02:14:10;;;;;;;3.30;1.60;;;16.00;99.90;;;15.70;100.00;101057.56;4966999;28;20500;-77
2022/06/28 02:16:37;;;;;;;1.67;1.58;;;16.00;99.90;;;15.68;100.00;101059.41;4951566;28;20329;-77
2022/06/28 02:19:05;;;;;;;3.08;1.63;;;15.80;99.90;;;15.69;100.00;101058.47;4966800;28;20054;-77
2022/06/28 02:21:41;;;;;;;1.80;1.38;;;16.50;99.90;;;15.48;100.00;101059.22;4950024;28;20500;-76
2022/06/28 02:24:09;;;;;;;2.72;1.73;;;16.30;99.90;;;15.45;100.00;101058.41;4967285;28;20054;-77
2022/06/28 02:26:37;;;;;;;2.90;1.88;;;15.70;99.90;;;15.39;100.00;101057.75;4967368;28;20500;-77
2022/06/28 02:29:06;;;;;;;3.53;1.73;;;15.80;99.90;;;15.43;100.00;101069.97;4950927;28;20054;-77
2022/06/28 02:31:33;;;;;;;2.90;1.90;;;15.60;99.90;;;15.56;100.00;101073.06;4971884;28;20109;-77
2022/06/28 02:34:00;;;;;;;3.38;1.70;;;15.80;99.90;;;15.56;100.00;101068.66;4988055;28;20567;-77
2022/06/28 02:41:50;;;;;;;5.38;1.63;;;15.60;99.90;;;15.58;100.00;101079.19;4989947;28;20050;-77
2022/06/28 02:44:17;;;;;;;3.25;1.90;;;15.60;99.90;;;15.57;100.00;101085.41;4974051;28;20081;-77
2022/06/28 02:46:46;;;;;;;3.72;2.08;;;15.60;99.90;;;15.54;100.00;101086.41;4990664;28;20054;-77
2022/06/28 02:49:15;;;;;;;2.30;1.80;;;16.10;99.90;;;15.57;100.00;101083.63;4973700;28;20054;-77
2022/06/28 02:51:42;;;;;;;3.85;1.73;;;15.60;99.90;;;15.56;100.00;101089.88;4973471;28;20054;-77
2022/06/28 02:54:09;;;;;;;6.35;1.90;;;15.60;99.90;;;15.37;100.00;101089.59;4973725;28;20689;-76
2022/06/28 02:56:37;;;;;;;4.25;1.70;;;15.70;99.90;;;15.40;100.00;101092.13;4973693;28;20137;-77
2022/06/28 02:59:04;;;;;;;3.92;1.60;;;16.30;99.90;;;15.11;100.00;101107.19;4989568;28;20042;-76
2022/06/28 03:01:31;;;;;;;1.80;1.60;;;15.40;99.90;;;15.09;100.00;101103.72;4989582;28;20153;-77
2022/06/28 03:03:59;;;;;;;2.45;1.65;;;15.30;99.90;;;15.15;100.00;101100.00;4989712;28;20506;-76
2022/06/28 03:06:26;;;;;;;4.93;1.77;;;15.30;99.90;;;15.19;100.00;101103.44;4973563;28;20039;-76
2022/06/28 03:08:53;;;;;;;5.88;1.98;;;15.30;99.90;;;15.03;100.00;101104.78;4975196;28;20045;-77
2022/06/28 03:11:21;;;;;;;6.72;2.17;;;15.20;99.90;;;14.93;100.00;101105.13;4989391;28;20515;-76
2022/06/28 03:13:48;;;;;;;4.10;1.95;;;15.40;99.90;;;14.93;100.00;101111.28;4989360;28;20042;-77
2022/06/28 03:16:15;;;;;;;2.28;1.58;;;15.10;99.90;;;14.90;100.00;101108.72;4973843;28;20725;-77
2022/06/28 03:18:42;;;;;;;6.60;2.00;;;15.00;99.90;;;15.02;100.00;101112.78;4989273;28;20049;-77
2022/06/28 03:21:09;;;;;;;4.57;1.88;;;15.00;99.90;;;14.82;100.00;101110.75;4973125;28;20050;-76
2022/06/28 03:23:37;;;;;;;2.58;1.67;;;15.10;99.90;;;14.96;100.00;101112.97;4989200;28;20045;-76
2022/06/28 03:26:04;;;;;;;2.88;1.50;;;15.40;99.90;;;14.88;100.00;101106.13;4989596;28;20060;-76
2022/06/28 03:28:32;;;;;;;11.93;2.30;;;15.10;99.90;;;14.60;100.00;101116.66;4989226;28;20054;-76
2022/06/28 03:30:59;;;;;;;3.25;1.88;;;15.00;99.90;;;14.65;100.00;101120.03;4971891;28;20046;-76
2022/06/28 03:33:26;;;;;;;3.85;2.78;;;14.90;99.90;;;14.69;100.00;101123.47;4953756;28;20404;-77
2022/06/28 03:35:54;;;;;;;4.90;2.55;;;14.90;99.90;;;14.82;100.00;101121.34;4938444;28;20125;-76
2022/06/28 03:38:27;;;;;;;2.90;1.90;;;14.80;99.90;;;14.77;100.00;101116.16;4985938;28;20057;-77
2022/06/28 03:41:09;;;;;;;5.65;2.00;;;14.80;99.90;;;14.84;100.00;101117.75;4955419;28;20043;-77
2022/06/28 03:43:38;;;;;;;6.78;1.95;;;14.80;99.90;;;14.77;100.00;101110.03;4953694;28;20449;-76
2022/06/28 03:46:05;;;;;;;5.78;2.05;;;14.80;99.90;;;14.69;100.00;101126.97;4969793;28;20043;-77
2022/06/28 03:48:42;;;;;;;3.78;1.98;;;16.00;99.90;;;14.72;100.00;101118.09;4954404;28;20785;-77
2022/06/28 03:51:23;;;;;;;3.28;2.10;;;14.90;99.90;;;14.69;100.00;101110.22;4955302;28;20117;-77
2022/06/28 03:54:21;;;;;;;2.33;2.13;;;14.80;99.90;;;14.58;100.00;101118.44;4956967;28;20043;-76
2022/06/28 03:56:58;;;;;;;4.45;2.08;;;14.80;99.90;;;14.48;100.00;101122.28;4956741;28;20138;-76
2022/06/28 03:59:25;;;;;;;4.07;2.30;;;14.80;99.90;;;14.58;100.00;101121.97;4971937;28;20085;-77
2022/06/28 04:01:53;;;;;;;3.92;1.85;;;14.70;99.90;;;14.69;100.00;101131.41;4978576;28;20071;-77
2022/06/28 04:04:21;;;;;;;3.90;2.10;;;14.70;99.90;;;14.79;100.00;101122.28;4953424;28;20568;-76
2022/06/28 04:06:48;;;;;;;3.80;2.28;;;14.70;99.90;;;14.74;100.00;101138.31;4953483;28;20105;-77
2022/06/28 04:09:17;;;;;;;2.53;2.30;;;14.80;99.90;;;14.83;100.00;101125.72;4968592;28;20082;-77
2022/06/28 04:11:48;;;;;;;6.47;2.33;;;14.80;99.90;;;14.86;100.00;101125.63;4953354;28;20142;-77
2022/06/28 04:14:15;;;;;;;5.60;2.50;;;14.80;99.90;;;14.93;100.00;101129.84;4969273;28;20057;-77
2022/06/28 04:16:43;;;;;;;4.20;2.13;;;14.90;99.90;;;14.89;100.00;101136.13;4953423;28;20077;-77
2022/06/28 04:19:15;;;;;;;7.50;2.15;;;14.90;99.90;;;14.89;100.00;101133.47;4954464;28;20058;-76
2022/06/28 04:21:46;;;;;;;3.90;2.20;;;14.90;99.90;;;14.92;100.00;101136.06;4953457;28;20047;-76
2022/06/28 04:24:17;;;;;;;3.92;1.88;;;15.00;99.90;;;14.93;100.00;101127.19;4953312;28;20063;-77
2022/06/28 04:27:02;;;;;;;5.25;2.55;;;15.00;99.90;;;14.86;100.00;101137.09;4957989;28;20130;-77
2022/06/28 04:29:30;;;;;;;3.47;2.53;;;14.90;99.90;;;14.87;100.00;101135.31;4951709;28;20086;-77
2022/06/28 04:31:57;;;;;;;3.85;1.83;;;14.90;99.90;;;14.88;100.00;101134.38;4957507;28;20515;-77
2022/06/28 04:34:25;;;;;;;2.78;2.33;;;14.90;99.90;;;14.90;100.00;101135.22;4961231;28;20070;-77
2022/06/28 04:36:56;;;;;;;2.95;2.13;;;15.00;99.90;;;14.94;100.00;101131.56;4955896;28;20043;-77
2022/06/28 04:39:24;;;;;;;5.65;2.42;;;14.90;99.90;;;14.99;100.00;101134.94;4976973;28;20048;-76
2022/06/28 04:42:07;;;;;;;3.13;2.58;;;14.90;99.90;;;15.08;100.00;101138.25;4968869;28;20051;-77
2022/06/28 04:44:38;;;;;;;7.45;2.78;;;15.00;99.90;;;15.18;100.00;101137.03;4952231;28;20042;-77
2022/06/28 04:47:08;;;;;;;6.85;2.65;;;15.10;99.90;;;15.07;100.00;101136.50;4973792;28;20503;-77
2022/06/28 04:49:37;;;;;;;5.78;2.42;;;15.10;99.90;;;15.10;100.00;101133.75;4983020;28;20047;-77
2022/06/28 04:52:05;;;;;;;4.53;2.42;;;16.50;99.90;;;15.19;100.00;101127.31;4955907;28;20707;-77
2022/06/28 04:54:37;;;;;;;8.15;2.47;;;15.10;99.90;;;15.35;100.00;101125.91;4969353;28;20038;-76
2022/06/28 04:57:21;;;;;;;2.70;2.50;;;15.20;99.90;;;15.49;100.00;101137.84;4968668;28;20046;-76
2022/06/28 05:00:10;;;;;;;4.43;2.50;;;15.30;99.90;;;15.51;100.00;101134.22;4956911;28;20049;-76
2022/06/28 05:02:43;;;;;;;5.60;2.72;;;15.40;99.90;;;15.59;100.00;101134.84;4983984;28;20046;-78
2022/06/28 05:05:32;;;;;;;4.20;2.80;;;15.40;99.90;;;15.66;100.00;101134.63;4959268;28;20054;-77
2022/06/28 05:07:59;;;;;;;6.28;2.78;;;15.60;99.90;;;15.73;100.00;101141.47;4972536;28;20049;-77
2022/06/28 05:10:32;;;;;;;5.63;3.40;;;15.60;99.90;;;15.83;100.00;101153.50;4972251;28;20058;-77
2022/06/28 05:13:14;;;;;;;4.03;3.30;;;15.60;99.90;;;15.88;100.00;101151.59;4978204;28;20058;-77
2022/06/28 05:15:42;;;;;;;7.22;3.13;;;15.70;99.90;;;15.94;100.00;101152.31;4988038;28;20054;-77
2022/06/28 05:18:11;;;;;;;5.35;3.50;;;15.80;99.90;;;15.99;100.00;101150.38;4987994;28;20558;-77
2022/06/28 05:20:38;;;;;;;4.55;4.07;;;15.80;99.90;;;16.04;100.00;101144.91;4970605;28;20097;-77
2022/06/28 05:23:07;;;;;;;6.45;4.03;;;15.90;99.90;;;16.13;100.00;101145.44;4971521;28;20117;-76
2022/06/28 05:26:00;;;;;;;5.40;4.18;;;15.90;99.90;;;16.19;100.00;101146.16;4984421;28;20582;-76
2022/06/28 05:28:27;;;;;;;10.63;4.40;;;16.00;99.90;;;16.19;100.00;101151.47;4987918;28;20230;-76
2022/06/28 05:30:55;;;;;;;7.30;4.28;;;16.10;99.90;;;16.28;100.00;101149.38;4992208;28;20542;-76
2022/06/28 05:33:23;;;;;;;5.25;3.97;;;16.40;99.90;;;16.38;100.00;101139.28;4968672;28;20407;-76
2022/06/28 05:35:50;;;;;;;7.65;4.15;;;16.20;99.90;;;16.47;100.00;101142.50;4968944;28;20053;-76
2022/06/28 05:38:17;;;;;;;6.93;4.40;;;16.20;99.90;;;16.47;100.00;101150.47;4985191;28;20053;-76
2022/06/28 05:40:45;;;;;;;4.53;3.75;;;16.30;99.90;;;16.56;100.00;101145.72;4968052;28;20386;-77
2022/06/28 05:43:12;;;;;;;4.93;4.43;;;16.40;99.90;;;16.61;100.00;101132.25;4974287;28;20461;-77
2022/06/28 05:45:39;;;;;;;5.45;4.05;;;16.50;99.90;;;16.59;100.00;101129.66;4958636;28;20090;-77
2022/06/28 05:48:06;;;;;;;6.18;4.10;;;17.00;99.90;;;16.63;100.00;101126.88;4954038;28;20049;-77
2022/06/28 05:50:33;;;;;;;4.32;3.67;;;16.50;99.90;;;16.65;100.00;101122.38;4968871;28;20511;-77
2022/06/28 05:53:00;;;;;;;6.88;3.60;;;16.50;99.90;;;16.68;100.00;101125.78;4953694;28;20050;-77
2022/06/28 05:55:28;;;;;;;3.58;3.28;;;16.60;99.90;;;16.74;100.00;101130.00;4969582;28;20042;-77
2022/06/28 05:57:58;;;;;;;4.47;2.80;;;16.60;99.90;;;16.78;100.00;101128.06;4988042;28;20038;-77
2022/06/28 06:00:25;;;;;;;6.28;3.40;;;16.60;99.90;;;16.88;100.00;101134.78;4990892;28;20046;-77
2022/06/28 06:02:52;;;;;;;5.68;2.95;;;16.70;99.90;;;16.84;100.00;101123.41;4978054;28;20050;-77
2022/06/28 06:05:19;;;;;;;4.15;3.75;;;17.20;99.90;;;16.90;100.00;101121.44;4968359;28;20051;-77
2022/06/28 06:07:48;;;;;;;3.17;2.55;;;16.70;99.90;;;16.99;100.00;101127.31;4962887;28;20055;-77
2022/06/28 06:10:15;;;;;;;6.55;2.78;;;18.00;99.90;;;17.00;100.00;101123.72;4985089;28;20053;-77
2022/06/28 06:12:41;;;;;;;6.93;2.75;;;16.80;99.90;;;17.03;100.00;101114.78;4972279;28;20046;-77
2022/06/28 06:15:10;;;;;;;4.75;2.28;;;16.80;99.90;;;17.11;100.00;101115.31;4974190;28;20046;-77
2022/06/28 06:17:37;;;;;;;3.10;2.63;;;16.90;99.90;;;17.19;100.00;101107.03;4957245;28;20137;-77
2022/06/28 06:20:08;;;;;;;3.38;2.35;;;17.00;99.90;;;17.26;100.00;101111.19;4973067;28;20126;-77
2022/06/28 06:22:36;;;;;;;3.72;2.40;;;17.00;99.90;;;17.28;100.00;101112.00;4972471;28;20133;-77
2022/06/28 06:25:17;;;;;;;5.20;2.38;;;17.10;99.90;;;17.38;100.00;101109.81;4973894;28;20526;-77
2022/06/28 06:27:44;;;;;;;5.57;2.25;;;17.10;99.90;;;17.43;100.00;101099.84;4956913;28;20124;-77
2022/06/28 06:30:12;;;;;;;3.10;2.38;;;17.20;99.90;;;17.43;100.00;101099.00;4989216;28;20084;-77
2022/06/28 06:32:56;;;;;;;3.55;2.15;;;17.20;99.90;;;17.52;100.00;101103.06;4991329;28;20050;-77
2022/06/28 06:35:48;;;;;;;3.05;2.15;;;17.30;99.90;;;17.51;100.00;101102.19;4972643;28;20131;-77
2022/06/28 06:38:16;;;;;;;3.53;2.33;;;17.30;99.90;;;17.60;100.00;101108.06;4956551;28;20589;-76
2022/06/28 06:40:46;;;;;;;3.27;2.37;;;17.40;99.90;;;17.61;100.00;101110.66;4955953;28;20145;-77
2022/06/28 06:43:13;;;;;;;3.72;1.88;;;17.40;99.90;;;17.68;100.00;101111.25;4956982;28;20337;-77
2022/06/28 06:45:41;;;;;;;3.17;2.05;;;17.40;99.90;;;17.74;100.00;101097.72;4975965;28;20054;-77
2022/06/28 06:48:08;;;;;;;2.50;2.00;;;17.50;99.90;;;17.78;100.00;101091.31;4991641;28;20088;-77
2022/06/28 06:50:35;;;;;;;3.00;2.00;;;17.60;99.90;;;17.80;100.00;101089.47;4974922;28;20057;-77
2022/06/28 06:53:03;;;;;;;2.30;1.80;;;17.60;99.90;;;17.83;100.00;101089.31;4992000;28;20056;-77
2022/06/28 06:55:30;;;;;;;2.38;1.85;;;17.60;99.90;;;17.96;100.00;101078.16;4991921;28;20654;-77
2022/06/28 06:57:57;;;;;;;2.83;2.10;;;17.70;99.90;;;17.95;100.00;101084.41;4992460;28;20057;-78
2022/06/28 07:00:24;;;;;;;3.28;1.73;;;17.70;99.90;;;18.01;100.00;101081.47;4975911;28;20050;-77
2022/06/28 07:02:51;;;;;;;2.70;2.05;;;17.80;99.90;;;18.08;100.00;101082.09;4992791;28;20050;-78
2022/06/28 07:05:18;;;;;;;1.85;1.55;;;17.80;99.90;;;18.14;100.00;101082.69;4957266;28;20098;-79
2022/06/28 07:07:48;;;;;;;4.38;2.00;;;17.90;99.90;;;18.18;100.00;101075.44;4973521;28;20051;-77
2022/06/28 07:10:21;;;;;;;9.27;2.15;;;17.90;99.90;;;18.25;100.00;101076.88;4970641;28;20148;-78
2022/06/28 07:12:49;;;;;;;2.65;1.73;;;18.00;99.90;;;18.35;100.00;101074.69;4971890;28;20566;-79
2022/06/28 07:15:16;;;;;;;6.07;2.25;;;18.10;99.90;;;18.46;100.00;101075.97;4970514;28;20042;-77
2022/06/28 07:17:43;;;;;;;4.95;1.95;;;18.10;99.90;;;18.50;100.00;101075.75;4981249;28;20030;-78
2022/06/28 07:20:11;;;;;;;3.42;1.40;;;18.20;99.90;;;18.59;100.00;101071.81;4987724;28;20677;-78
2022/06/28 07:22:38;;;;;;;2.65;2.08;;;16.90;99.90;;;18.66;100.00;101070.59;4991981;28;20046;-78
2022/06/28 07:25:11;;;;;;;5.88;1.38;;;18.30;99.90;;;18.69;100.00;101067.78;4978008;28;20051;-77
2022/06/28 07:27:38;;;;;;;3.35;1.90;;;18.40;99.90;;;18.79;100.00;101059.34;5007019;28;20053;-77
2022/06/28 07:30:06;;;;;;;2.85;1.60;;;18.40;99.90;;;18.87;100.00;101051.84;4972883;28;20626;-79
2022/06/28 07:32:33;;;;;;;7.60;1.55;;;18.50;99.90;;;18.90;100.00;101049.03;4974916;28;20605;-77
2022/06/28 07:35:01;;;;;;;4.22;1.52;;;18.60;99.90;;;18.93;100.00;101040.88;4968931;28;20039;-77
2022/06/28 07:37:29;;;;;;;7.72;1.90;;;18.70;99.90;;;18.96;100.00;101031.88;4971229;28;20499;-77
2022/06/28 07:39:57;;;;;;;5.07;1.40;;;18.70;99.60;;;18.96;100.00;101038.06;4937584;28;20548;-77
2022/06/28 07:43:00;;;;;;;6.38;1.52;;;18.70;99.40;;;19.12;100.00;101040.00;4937745;29;20063;-77
2022/06/28 07:45:39;;;;;;;5.20;1.70;;;18.80;99.40;;;19.18;100.00;101026.38;4952377;28;20083;-77
2022/06/28 07:48:12;;;;;;;4.20;1.85;;;18.90;99.00;;;19.23;100.00;101032.34;4955798;28;20050;-77
2022/06/28 07:53:26;;;;;;;2.28;1.45;;;19.00;98.20;;;19.33;100.00;101035.41;4974098;28;20054;-78
2022/06/28 07:56:18;;;;;;;2.35;1.85;;;19.00;98.70;;;19.40;100.00;101036.84;4961685;28;20512;-78
2022/06/28 07:58:47;;;;;;;3.67;1.33;;;19.10;98.20;;;19.48;100.00;101035.56;4956905;28;20147;-78
2022/06/28 08:01:22;;;;;;;7.05;1.80;;;19.20;98.00;;;19.57;100.00;101035.13;4974051;28;20149;-77
2022/06/28 08:03:51;;;;;;;2.63;1.48;;;19.60;98.30;;;19.54;100.00;101036.13;4971557;28;20050;-77
2022/06/28 08:06:18;;;;;;;4.05;1.40;;;20.20;98.10;;;19.64;100.00;101039.19;4952915;28;20055;-77
2022/06/28 08:08:50;;;;;;;3.10;1.60;;;19.30;97.80;;;19.80;100.00;101035.72;4953827;28;20516;-79
2022/06/28 08:11:17;;;;;;;3.03;1.45;;;19.40;98.50;;;19.93;100.00;101039.50;4958633;28;20046;-78
2022/06/28 08:13:48;;;;;;;1.63;1.27;;;19.50;97.90;;;20.02;100.00;101047.97;4972627;28;20060;-78
2022/06/28 08:16:16;;;;;;;1.92;1.20;;;19.60;97.30;;;20.09;100.00;101055.59;4952323;28;20416;-79
2022/06/28 08:18:44;;;;;;;2.85;1.45;;;19.60;96.80;;;20.17;100.00;101043.59;5004547;28;20089;-80
2022/06/28 08:21:17;;;;;;;1.88;1.45;;;19.80;96.70;;;20.26;100.00;101038.63;4985801;28;20066;-79
2022/06/28 08:23:45;;;;;;;3.65;1.83;;;19.90;96.50;;;20.30;100.00;101025.13;4977335;28;20753;-76
2022/06/28 08:26:12;;;;;;;4.75;1.70;;;19.90;96.50;;;20.41;100.00;101020.03;4976965;28;20038;-78
2022/06/28 08:28:39;;;;;;;4.28;1.15;;;20.00;96.50;;;20.46;100.00;101014.44;4995599;28;20050;-79
2022/06/28 08:31:06;;;;;;;1.25;1.05;;;20.10;96.00;;;20.55;100.00;101013.94;4993099;28;20581;-78
2022/06/28 08:33:33;;;;;;;1.98;1.20;;;20.10;95.80;;;20.62;100.00;101009.13;4975492;28;20142;-78
2022/06/28 08:36:00;;;;;;;1.75;1.33;;;20.20;95.60;;;20.65;100.00;100999.09;4970481;28;20508;-77
2022/06/28 08:38:28;;;;;;;2.30;1.05;;;20.30;96.00;;;20.63;100.00;100981.44;4969861;28;20070;-77
2022/06/28 08:40:55;;;;;;;2.42;1.30;;;20.30;95.00;;;20.75;100.00;100982.53;4967781;28;20105;-77
2022/06/28 08:43:23;;;;;;;3.30;1.27;;;20.30;95.30;;;20.77;99.02;100980.63;4968497;28;20047;-77
2022/06/28 08:45:50;;;;;;;3.38;1.52;;;20.40;94.50;;;20.82;100.00;100987.47;4968977;28;20046;-77
2022/06/28 08:48:29;;;;;;;3.10;1.38;;;20.50;94.90;;;21.01;100.00;100977.53;4968994;28;20139;-77
2022/06/28 08:50:58;;;;;;;2.80;1.20;;;20.60;94.90;;;21.07;100.00;100963.78;4968662;28;20051;-78
2022/06/28 08:53:26;;;;;;;2.05;1.30;;;20.70;94.70;;;21.19;100.00;100949.69;4975247;28;20101;-79
2022/06/28 08:55:53;;;;;;;2.22;1.20;;;20.40;94.70;;;21.25;100.00;100951.97;4995034;28;20053;-78
2022/06/28 08:58:21;;;;;;;1.77;1.00;;;20.80;94.80;;;21.39;99.78;100945.81;4994897;28;20031;-78
2022/06/28 09:00:48;;;;;;;3.20;1.55;;;20.90;94.40;;;21.47;100.00;100948.03;4977632;28;20447;-78
2022/06/28 09:03:18;;;;;;;1.80;1.23;;;21.00;94.50;;;21.59;94.32;100950.88;4958799;28;20046;-78
2022/06/28 09:05:45;;;;;;;;;;;21.10;93.80;;;21.65;94.36;100940.69;4975524;28;20105;-78
2022/06/28 09:08:12;;;;;;;3.22;1.02;;;21.20;93.60;;;21.71;94.88;100942.13;4967879;28;19933;-78
2022/06/28 09:10:39;;;;;;;2.22;1.30;;;21.30;93.60;;;21.80;94.58;100946.06;4992382;28;20141;-78
2022/06/28 09:13:18;;;;;;;5.57;1.30;;;21.40;93.70;;;21.87;95.37;100949.22;4972607;28;20030;-78
2022/06/28 09:15:51;;;;;;;5.55;1.42;;;23.70;93.30;;;21.91;86.62;100946.25;4975404;28;20053;-78
2022/06/28 09:18:22;;;;;;;3.72;1.30;;;21.50;92.80;;;21.90;84.77;100932.94;4980604;28;20057;-78
2022/06/28 09:20:56;;;;;;;2.45;1.10;;;21.60;92.30;;;22.04;85.32;100940.97;4963665;28;20047;-79
2022/06/28 09:23:31;;;;;;;5.10;1.38;;;21.70;92.40;;;22.15;88.59;100936.75;4980091;28;20126;-79
2022/06/28 09:26:16;;;;;;;2.35;1.25;;;21.70;92.80;;;22.18;75.79;100924.03;4982138;28;20137;-79
2022/06/28 09:28:50;;;;;;;6.05;1.50;;;21.80;91.60;;;22.24;79.96;100928.97;4958175;28;20065;-80
2022/06/28 09:31:24;;;;;;;3.00;1.10;;;21.90;91.70;;;22.31;73.63;100924.09;4960787;28;20458;-80
2022/06/28 09:34:01;;;;;;;2.45;1.20;;;21.90;91.10;;;22.36;78.86;100921.13;4991953;28;20097;-80
2022/06/28 09:36:41;;;;;;;3.72;1.27;;;22.00;91.30;;;22.38;71.29;100911.16;4992872;28;20054;-80
2022/06/28 09:39:17;;;;;;;2.40;1.33;;;22.00;90.50;;;22.43;68.12;100909.00;4994788;28;20046;-80
2022/06/28 09:41:52;;;;;;;4.10;1.20;;;22.10;90.00;;;22.54;71.75;100913.69;4976628;28;20077;-78
2022/06/28 09:44:53;;;;;;;1.30;1.10;;;22.10;90.50;;;22.61;71.65;100909.66;4999005;28;20049;-79
2022/06/28 09:47:20;;;;;;;2.90;1.38;;;22.20;90.30;;;22.67;71.26;100911.09;4980054;28;20068;-78
2022/06/28 09:49:50;;;;;;;;;;;22.20;90.20;;;22.79;68.10;100912.06;4994124;28;20535;-80
2022/06/28 09:52:21;;;;;;;2.70;1.50;;;22.30;89.90;;;22.83;70.54;100916.25;4995156;28;19922;-79
2022/06/28 09:54:53;;;;;;;5.32;1.33;;;22.50;90.20;;;22.90;64.44;100914.91;4992668;28;20478;-79
2022/06/28 09:57:22;;;;;;;2.38;1.30;;;22.50;88.20;;;22.85;60.83;100914.31;4991846;28;20078;-78
2022/06/28 09:59:50;;;;;;;3.22;1.20;;;22.50;86.60;;;22.94;67.34;100911.03;4990617;28;20102;-78
2022/06/28 10:02:18;;;;;;;2.65;1.25;;;22.50;88.90;;;22.95;64.39;100899.34;4981228;28;20551;-78
2022/06/28 10:04:46;;;;;;;1.50;1.02;;;22.60;88.20;;;23.08;64.01;100904.72;4942027;28;20133;-78
2022/06/28 10:07:14;;;;;;;5.22;1.20;;;22.70;87.40;;;23.16;58.87;100903.34;4975699;28;20046;-79
2022/06/28 10:09:41;;;;;;;2.80;1.48;;;22.70;86.30;;;23.19;60.45;100901.31;4991030;28;20430;-79
2022/06/28 10:15:04;;;;;;;1.67;1.33;;;22.80;85.50;;;23.33;60.11;100894.13;4979672;28;20053;-78
2022/06/28 10:17:44;;;;;;;3.08;1.15;;;22.90;85.70;;;23.53;61.03;100905.31;4976070;28;20057;-78
2022/06/28 10:20:18;;;;;;;2.57;1.17;;;23.00;85.60;;;23.56;57.96;100905.09;4988998;28;20058;-78
2022/06/28 10:22:45;;;;;;;2.70;1.40;;;23.10;84.20;;;23.56;59.94;100895.22;4990336;28;20116;-80
2022/06/28 10:25:23;;;;;;;1.60;1.02;;;23.10;85.10;;;23.59;56.41;100886.09;4986062;28;20074;-80
2022/06/28 10:27:52;;;;;;;2.60;1.23;;;23.20;84.00;;;23.57;53.85;100888.03;4972547;28;20106;-79
2022/06/28 10:30:28;;;;;;;7.78;2.22;;;23.10;82.30;;;23.71;60.82;100879.84;4971245;28;20042;-80
2022/06/28 10:33:05;;;;;;;3.00;1.20;;;23.20;84.70;;;23.81;55.42;100879.19;4956045;28;20104;-80